sensor_id;sensor_type;location;lat;lon;timestamp;temperature;humidity
24664;DHT22;12791;50.992;13.788;2023-04-07T00:01:38;3.40;65.70
24664;DHT22;12791;50.992;13.788;2023-04-07T00:04:05;3.30;65.60
24664;DHT22;12791;50.992;13.788;2023-04-07T00:06:31;3.30;65.60
24664;DHT22;12791;50.992;13.788;2023-04-07T00:08:58;3.40;65.80
24664;DHT22;12791;50.992;13.788;2023-04-07T00:11:26;3.40;65.60
24664;DHT22;12791;50.992;13.788;2023-04-07T00:13:53;3.30;65.70
24664;DHT22;12791;50.992;13.788;2023-04-07T00:16:19;3.20;65.90
24664;DHT22;12791;50.992;13.788;2023-04-07T00:18:46;3.60;66.20
24664;DHT22;12791;50.992;13.788;2023-04-07T00:21:13;3.30;65.90
24664;DHT22;12791;50.992;13.788;2023-04-07T00:23:39;3.30;66.10
24664;DHT22;12791;50.992;13.788;2023-04-07T00:26:07;3.40;66.70
24664;DHT22;12791;50.992;13.788;2023-04-07T00:28:35;3.30;65.80
24664;DHT22;12791;50.992;13.788;2023-04-07T00:31:02;3.30;65.90
24664;DHT22;12791;50.992;13.788;2023-04-07T00:33:28;3.40;66.20
24664;DHT22;12791;50.992;13.788;2023-04-07T00:35:55;3.10;66.30
24664;DHT22;12791;50.992;13.788;2023-04-07T00:38:23;3.00;66.70
24664;DHT22;12791;50.992;13.788;2023-04-07T00:40:49;2.90;66.80
24664;DHT22;12791;50.992;13.788;2023-04-07T00:43:22;3.00;66.70
24664;DHT22;12791;50.992;13.788;2023-04-07T00:45:51;3.10;66.80
24664;DHT22;12791;50.992;13.788;2023-04-07T00:48:18;3.00;66.50
24664;DHT22;12791;50.992;13.788;2023-04-07T00:50:45;3.30;67.00
24664;DHT22;12791;50.992;13.788;2023-04-07T00:53:12;2.80;66.90
24664;DHT22;12791;50.992;13.788;2023-04-07T00:55:39;2.90;67.00
24664;DHT22;12791;50.992;13.788;2023-04-07T00:58:06;2.80;67.00
24664;DHT22;12791;50.992;13.788;2023-04-07T01:00:36;2.90;67.60
24664;DHT22;12791;50.992;13.788;2023-04-07T01:03:08;2.80;67.60
24664;DHT22;12791;50.992;13.788;2023-04-07T01:05:41;2.80;67.70
24664;DHT22;12791;50.992;13.788;2023-04-07T01:08:13;2.70;67.70
24664;DHT22;12791;50.992;13.788;2023-04-07T01:10:44;2.80;68.40
24664;DHT22;12791;50.992;13.788;2023-04-07T01:13:21;2.70;68.80
24664;DHT22;12791;50.992;13.788;2023-04-07T01:15:50;2.70;69.40
24664;DHT22;12791;50.992;13.788;2023-04-07T01:18:25;2.60;69.70
24664;DHT22;12791;50.992;13.788;2023-04-07T01:20:58;2.70;69.20
24664;DHT22;12791;50.992;13.788;2023-04-07T01:23:35;2.90;69.40
24664;DHT22;12791;50.992;13.788;2023-04-07T01:26:15;2.60;69.50
24664;DHT22;12791;50.992;13.788;2023-04-07T01:29:06;2.50;70.10
24664;DHT22;12791;50.992;13.788;2023-04-07T01:31:39;2.60;70.30
24664;DHT22;12791;50.992;13.788;2023-04-07T01:34:09;2.60;69.80
24664;DHT22;12791;50.992;13.788;2023-04-07T01:36:36;2.60;69.60
24664;DHT22;12791;50.992;13.788;2023-04-07T01:39:03;2.80;70.20
24664;DHT22;12791;50.992;13.788;2023-04-07T01:41:30;2.70;70.20
24664;DHT22;12791;50.992;13.788;2023-04-07T01:43:58;2.60;69.50
24664;DHT22;12791;50.992;13.788;2023-04-07T01:46:26;2.60;69.40
24664;DHT22;12791;50.992;13.788;2023-04-07T01:48:55;2.70;69.30
24664;DHT22;12791;50.992;13.788;2023-04-07T01:51:23;2.90;69.20
24664;DHT22;12791;50.992;13.788;2023-04-07T01:53:52;3.00;69.20
24664;DHT22;12791;50.992;13.788;2023-04-07T01:56:19;3.00;69.00
24664;DHT22;12791;50.992;13.788;2023-04-07T01:58:46;2.70;68.70
24664;DHT22;12791;50.992;13.788;2023-04-07T02:01:13;2.60;69.10
24664;DHT22;12791;50.992;13.788;2023-04-07T02:03:43;2.60;69.50
24664;DHT22;12791;50.992;13.788;2023-04-07T02:06:19;2.50;69.60
24664;DHT22;12791;50.992;13.788;2023-04-07T02:08:50;2.40;68.90
24664;DHT22;12791;50.992;13.788;2023-04-07T02:11:20;2.40;69.20
24664;DHT22;12791;50.992;13.788;2023-04-07T02:13:49;2.50;69.60
24664;DHT22;12791;50.992;13.788;2023-04-07T02:16:18;2.40;69.60
24664;DHT22;12791;50.992;13.788;2023-04-07T02:18:46;2.30;69.70
24664;DHT22;12791;50.992;13.788;2023-04-07T02:21:14;2.40;70.10
24664;DHT22;12791;50.992;13.788;2023-04-07T02:23:42;2.50;70.20
24664;DHT22;12791;50.992;13.788;2023-04-07T02:26:09;2.30;70.00
24664;DHT22;12791;50.992;13.788;2023-04-07T02:28:36;2.30;70.10
24664;DHT22;12791;50.992;13.788;2023-04-07T02:31:03;2.20;70.30
24664;DHT22;12791;50.992;13.788;2023-04-07T02:33:29;2.20;70.30
24664;DHT22;12791;50.992;13.788;2023-04-07T02:35:56;2.10;70.50
24664;DHT22;12791;50.992;13.788;2023-04-07T02:38:24;2.30;70.60
24664;DHT22;12791;50.992;13.788;2023-04-07T02:40:51;2.40;71.00
24664;DHT22;12791;50.992;13.788;2023-04-07T02:43:19;2.20;70.60
24664;DHT22;12791;50.992;13.788;2023-04-07T02:45:45;2.30;70.30
24664;DHT22;12791;50.992;13.788;2023-04-07T02:48:12;2.30;70.40
24664;DHT22;12791;50.992;13.788;2023-04-07T02:50:39;2.30;70.20
24664;DHT22;12791;50.992;13.788;2023-04-07T02:53:06;2.20;70.30
24664;DHT22;12791;50.992;13.788;2023-04-07T02:55:34;2.30;70.20
24664;DHT22;12791;50.992;13.788;2023-04-07T02:58:00;2.30;70.20
24664;DHT22;12791;50.992;13.788;2023-04-07T03:00:27;2.20;69.90
24664;DHT22;12791;50.992;13.788;2023-04-07T03:02:54;2.20;70.00
24664;DHT22;12791;50.992;13.788;2023-04-07T03:05:20;2.20;70.30
24664;DHT22;12791;50.992;13.788;2023-04-07T03:07:47;2.10;70.60
24664;DHT22;12791;50.992;13.788;2023-04-07T03:10:14;2.10;71.30
24664;DHT22;12791;50.992;13.788;2023-04-07T03:12:42;2.10;71.60
24664;DHT22;12791;50.992;13.788;2023-04-07T03:15:09;2.30;72.20
24664;DHT22;12791;50.992;13.788;2023-04-07T03:17:36;2.20;72.50
24664;DHT22;12791;50.992;13.788;2023-04-07T03:20:03;2.20;72.70
24664;DHT22;12791;50.992;13.788;2023-04-07T03:22:30;2.00;72.80
24664;DHT22;12791;50.992;13.788;2023-04-07T03:24:56;1.90;72.20
24664;DHT22;12791;50.992;13.788;2023-04-07T03:27:23;2.10;72.30
24664;DHT22;12791;50.992;13.788;2023-04-07T03:29:52;2.20;72.00
24664;DHT22;12791;50.992;13.788;2023-04-07T03:32:19;2.00;72.00
24664;DHT22;12791;50.992;13.788;2023-04-07T03:34:45;2.00;72.00
24664;DHT22;12791;50.992;13.788;2023-04-07T03:37:12;1.90;72.00
24664;DHT22;12791;50.992;13.788;2023-04-07T03:39:39;1.90;72.10
24664;DHT22;12791;50.992;13.788;2023-04-07T03:42:06;1.90;72.40
24664;DHT22;12791;50.992;13.788;2023-04-07T03:44:33;1.90;72.90
24664;DHT22;12791;50.992;13.788;2023-04-07T03:47:01;1.90;72.90
24664;DHT22;12791;50.992;13.788;2023-04-07T03:49:28;1.90;73.00
24664;DHT22;12791;50.992;13.788;2023-04-07T03:51:55;1.80;72.80
24664;DHT22;12791;50.992;13.788;2023-04-07T03:54:22;1.80;73.20
24664;DHT22;12791;50.992;13.788;2023-04-07T03:56:49;1.80;73.20
24664;DHT22;12791;50.992;13.788;2023-04-07T03:59:16;1.90;73.60
24664;DHT22;12791;50.992;13.788;2023-04-07T04:01:43;2.00;73.60
24664;DHT22;12791;50.992;13.788;2023-04-07T04:04:11;1.80;73.70
24664;DHT22;12791;50.992;13.788;2023-04-07T04:06:38;1.90;73.90
24664;DHT22;12791;50.992;13.788;2023-04-07T04:09:05;2.00;74.30
24664;DHT22;12791;50.992;13.788;2023-04-07T04:11:31;1.70;74.80
24664;DHT22;12791;50.992;13.788;2023-04-07T04:13:58;1.70;75.50
24664;DHT22;12791;50.992;13.788;2023-04-07T04:16:24;1.80;75.50
24664;DHT22;12791;50.992;13.788;2023-04-07T04:18:51;1.90;75.40
24664;DHT22;12791;50.992;13.788;2023-04-07T04:21:19;1.90;75.00
24664;DHT22;12791;50.992;13.788;2023-04-07T04:23:46;1.90;74.50
24664;DHT22;12791;50.992;13.788;2023-04-07T04:26:12;1.90;74.20
24664;DHT22;12791;50.992;13.788;2023-04-07T04:28:39;2.10;74.30
24664;DHT22;12791;50.992;13.788;2023-04-07T04:31:06;1.90;74.20
24664;DHT22;12791;50.992;13.788;2023-04-07T04:33:32;2.00;74.10
24664;DHT22;12791;50.992;13.788;2023-04-07T04:35:59;1.90;73.90
24664;DHT22;12791;50.992;13.788;2023-04-07T04:38:27;1.90;73.90
24664;DHT22;12791;50.992;13.788;2023-04-07T04:40:53;2.00;74.00
24664;DHT22;12791;50.992;13.788;2023-04-07T04:43:20;1.90;73.80
24664;DHT22;12791;50.992;13.788;2023-04-07T04:45:47;2.20;74.10
24664;DHT22;12791;50.992;13.788;2023-04-07T04:48:13;1.90;73.50
24664;DHT22;12791;50.992;13.788;2023-04-07T04:50:41;2.10;73.60
24664;DHT22;12791;50.992;13.788;2023-04-07T04:53:08;2.10;74.00
24664;DHT22;12791;50.992;13.788;2023-04-07T04:55:36;2.00;73.80
24664;DHT22;12791;50.992;13.788;2023-04-07T04:58:05;1.90;73.60
24664;DHT22;12791;50.992;13.788;2023-04-07T05:00:31;2.00;74.10
24664;DHT22;12791;50.992;13.788;2023-04-07T05:02:58;1.90;74.30
24664;DHT22;12791;50.992;13.788;2023-04-07T05:05:25;1.70;75.20
24664;DHT22;12791;50.992;13.788;2023-04-07T05:07:51;1.70;74.70
24664;DHT22;12791;50.992;13.788;2023-04-07T05:10:18;1.90;75.40
24664;DHT22;12791;50.992;13.788;2023-04-07T05:12:46;1.70;75.30
24664;DHT22;12791;50.992;13.788;2023-04-07T05:15:12;2.00;75.50
24664;DHT22;12791;50.992;13.788;2023-04-07T05:17:40;1.90;75.40
24664;DHT22;12791;50.992;13.788;2023-04-07T05:20:08;2.00;75.10
24664;DHT22;12791;50.992;13.788;2023-04-07T05:22:35;2.00;75.60
24664;DHT22;12791;50.992;13.788;2023-04-07T05:25:02;1.90;75.20
24664;DHT22;12791;50.992;13.788;2023-04-07T05:27:30;1.90;75.20
24664;DHT22;12791;50.992;13.788;2023-04-07T05:29:57;2.10;76.20
24664;DHT22;12791;50.992;13.788;2023-04-07T05:32:26;1.80;75.50
24664;DHT22;12791;50.992;13.788;2023-04-07T05:34:53;2.20;76.20
24664;DHT22;12791;50.992;13.788;2023-04-07T05:37:20;2.10;76.10
24664;DHT22;12791;50.992;13.788;2023-04-07T05:39:46;2.00;76.40
24664;DHT22;12791;50.992;13.788;2023-04-07T05:42:13;2.00;76.00
24664;DHT22;12791;50.992;13.788;2023-04-07T05:44:40;2.20;76.40
24664;DHT22;12791;50.992;13.788;2023-04-07T05:47:08;2.30;76.60
24664;DHT22;12791;50.992;13.788;2023-04-07T05:49:35;2.30;76.40
24664;DHT22;12791;50.992;13.788;2023-04-07T05:52:02;2.50;76.20
24664;DHT22;12791;50.992;13.788;2023-04-07T05:54:30;2.20;75.90
24664;DHT22;12791;50.992;13.788;2023-04-07T05:56:57;2.30;75.70
24664;DHT22;12791;50.992;13.788;2023-04-07T05:59:23;2.50;76.30
24664;DHT22;12791;50.992;13.788;2023-04-07T06:01:50;2.30;75.40
24664;DHT22;12791;50.992;13.788;2023-04-07T06:04:18;2.40;75.30
24664;DHT22;12791;50.992;13.788;2023-04-07T06:06:46;2.40;75.00
24664;DHT22;12791;50.992;13.788;2023-04-07T06:09:12;2.50;75.00
24664;DHT22;12791;50.992;13.788;2023-04-07T06:11:39;2.60;73.30
24664;DHT22;12791;50.992;13.788;2023-04-07T06:14:06;2.70;72.70
24664;DHT22;12791;50.992;13.788;2023-04-07T06:16:32;2.80;72.40
24664;DHT22;12791;50.992;13.788;2023-04-07T06:19:00;2.80;72.20
24664;DHT22;12791;50.992;13.788;2023-04-07T06:21:27;2.90;71.80
24664;DHT22;12791;50.992;13.788;2023-04-07T06:23:55;3.00;71.70
24664;DHT22;12791;50.992;13.788;2023-04-07T06:26:21;3.20;71.50
24664;DHT22;12791;50.992;13.788;2023-04-07T06:28:48;3.20;69.50
24664;DHT22;12791;50.992;13.788;2023-04-07T06:31:15;3.20;68.30
24664;DHT22;12791;50.992;13.788;2023-04-07T06:33:42;3.30;67.70
24664;DHT22;12791;50.992;13.788;2023-04-07T06:36:08;3.30;67.70
24664;DHT22;12791;50.992;13.788;2023-04-07T06:38:37;3.40;68.20
24664;DHT22;12791;50.992;13.788;2023-04-07T06:41:04;3.70;68.30
24664;DHT22;12791;50.992;13.788;2023-04-07T06:43:30;3.50;67.90
24664;DHT22;12791;50.992;13.788;2023-04-07T06:45:57;3.80;68.60
24664;DHT22;12791;50.992;13.788;2023-04-07T06:48:24;3.90;67.80
24664;DHT22;12791;50.992;13.788;2023-04-07T06:50:51;4.00;68.10
24664;DHT22;12791;50.992;13.788;2023-04-07T06:53:17;4.00;67.40
24664;DHT22;12791;50.992;13.788;2023-04-07T06:55:46;4.00;66.70
24664;DHT22;12791;50.992;13.788;2023-04-07T06:58:12;4.30;66.30
24664;DHT22;12791;50.992;13.788;2023-04-07T07:00:39;4.20;66.20
24664;DHT22;12791;50.992;13.788;2023-04-07T07:03:05;4.30;66.30
24664;DHT22;12791;50.992;13.788;2023-04-07T07:05:32;4.30;65.80
24664;DHT22;12791;50.992;13.788;2023-04-07T07:07:59;4.40;65.50
24664;DHT22;12791;50.992;13.788;2023-04-07T07:10:25;4.30;65.40
24664;DHT22;12791;50.992;13.788;2023-04-07T07:12:53;4.40;65.90
24664;DHT22;12791;50.992;13.788;2023-04-07T07:15:20;4.40;65.90
24664;DHT22;12791;50.992;13.788;2023-04-07T07:17:47;4.40;66.30
24664;DHT22;12791;50.992;13.788;2023-04-07T07:20:13;4.60;66.70
24664;DHT22;12791;50.992;13.788;2023-04-07T07:22:40;4.50;66.80
24664;DHT22;12791;50.992;13.788;2023-04-07T07:25:07;4.70;67.10
24664;DHT22;12791;50.992;13.788;2023-04-07T07:27:34;4.70;67.50
24664;DHT22;12791;50.992;13.788;2023-04-07T07:30:02;4.80;67.50
24664;DHT22;12791;50.992;13.788;2023-04-07T07:32:29;4.90;67.40
24664;DHT22;12791;50.992;13.788;2023-04-07T07:34:56;4.90;66.80
24664;DHT22;12791;50.992;13.788;2023-04-07T07:37:22;5.10;66.40
24664;DHT22;12791;50.992;13.788;2023-04-07T07:39:49;5.30;66.40
24664;DHT22;12791;50.992;13.788;2023-04-07T07:42:15;5.30;66.60
24664;DHT22;12791;50.992;13.788;2023-04-07T07:44:42;5.40;66.40
24664;DHT22;12791;50.992;13.788;2023-04-07T07:47:10;5.50;66.40
24664;DHT22;12791;50.992;13.788;2023-04-07T07:49:37;5.60;65.90
24664;DHT22;12791;50.992;13.788;2023-04-07T07:52:04;5.90;65.30
24664;DHT22;12791;50.992;13.788;2023-04-07T07:54:30;6.00;64.80
24664;DHT22;12791;50.992;13.788;2023-04-07T07:56:57;5.90;64.90
24664;DHT22;12791;50.992;13.788;2023-04-07T07:59:24;6.10;63.60
24664;DHT22;12791;50.992;13.788;2023-04-07T08:01:50;6.30;63.10
24664;DHT22;12791;50.992;13.788;2023-04-07T08:04:18;6.20;61.50
24664;DHT22;12791;50.992;13.788;2023-04-07T08:06:47;6.70;61.00
24664;DHT22;12791;50.992;13.788;2023-04-07T08:09:14;6.70;59.90
24664;DHT22;12791;50.992;13.788;2023-04-07T08:11:41;6.50;59.20
24664;DHT22;12791;50.992;13.788;2023-04-07T08:14:07;6.60;57.90
24664;DHT22;12791;50.992;13.788;2023-04-07T08:16:34;6.60;57.50
24664;DHT22;12791;50.992;13.788;2023-04-07T08:19:01;6.50;57.90
24664;DHT22;12791;50.992;13.788;2023-04-07T08:21:28;6.50;57.80
24664;DHT22;12791;50.992;13.788;2023-04-07T08:23:56;6.70;56.30
24664;DHT22;12791;50.992;13.788;2023-04-07T08:26:23;6.80;56.30
24664;DHT22;12791;50.992;13.788;2023-04-07T08:28:49;6.80;54.70
24664;DHT22;12791;50.992;13.788;2023-04-07T08:31:16;7.00;53.90
24664;DHT22;12791;50.992;13.788;2023-04-07T08:33:43;7.10;53.80
24664;DHT22;12791;50.992;13.788;2023-04-07T08:36:11;7.20;52.90
24664;DHT22;12791;50.992;13.788;2023-04-07T08:38:39;7.20;51.80
24664;DHT22;12791;50.992;13.788;2023-04-07T08:41:10;7.30;51.90
24664;DHT22;12791;50.992;13.788;2023-04-07T08:43:37;7.30;51.50
24664;DHT22;12791;50.992;13.788;2023-04-07T08:46:05;7.30;51.20
24664;DHT22;12791;50.992;13.788;2023-04-07T08:48:37;7.40;51.60
24664;DHT22;12791;50.992;13.788;2023-04-07T08:51:05;7.30;51.30
24664;DHT22;12791;50.992;13.788;2023-04-07T08:53:36;7.50;51.70
24664;DHT22;12791;50.992;13.788;2023-04-07T08:56:08;7.60;51.50
24664;DHT22;12791;50.992;13.788;2023-04-07T08:58:35;7.60;51.30
24664;DHT22;12791;50.992;13.788;2023-04-07T09:01:03;7.60;51.70
24664;DHT22;12791;50.992;13.788;2023-04-07T09:03:31;7.60;51.80
24664;DHT22;12791;50.992;13.788;2023-04-07T09:05:59;7.60;51.30
24664;DHT22;12791;50.992;13.788;2023-04-07T09:08:26;7.70;51.30
24664;DHT22;12791;50.992;13.788;2023-04-07T09:10:53;7.90;51.50
24664;DHT22;12791;50.992;13.788;2023-04-07T09:13:21;7.90;51.80
24664;DHT22;12791;50.992;13.788;2023-04-07T09:15:49;7.80;50.80
24664;DHT22;12791;50.992;13.788;2023-04-07T09:18:16;7.90;50.00
24664;DHT22;12791;50.992;13.788;2023-04-07T09:20:56;8.00;49.20
24664;DHT22;12791;50.992;13.788;2023-04-07T09:23:27;8.00;48.80
24664;DHT22;12791;50.992;13.788;2023-04-07T09:25:59;8.20;49.10
24664;DHT22;12791;50.992;13.788;2023-04-07T09:28:40;8.00;49.40
24664;DHT22;12791;50.992;13.788;2023-04-07T09:31:07;8.20;48.90
24664;DHT22;12791;50.992;13.788;2023-04-07T09:33:33;8.10;48.50
24664;DHT22;12791;50.992;13.788;2023-04-07T09:36:01;8.20;47.80
24664;DHT22;12791;50.992;13.788;2023-04-07T09:38:32;8.30;47.50
24664;DHT22;12791;50.992;13.788;2023-04-07T09:41:09;8.20;47.80
24664;DHT22;12791;50.992;13.788;2023-04-07T09:43:40;8.20;48.00
24664;DHT22;12791;50.992;13.788;2023-04-07T09:46:09;8.30;48.40
24664;DHT22;12791;50.992;13.788;2023-04-07T09:48:36;8.30;48.90
24664;DHT22;12791;50.992;13.788;2023-04-07T09:51:05;8.40;48.40
24664;DHT22;12791;50.992;13.788;2023-04-07T09:53:41;8.50;48.10
24664;DHT22;12791;50.992;13.788;2023-04-07T09:56:09;8.50;47.90
24664;DHT22;12791;50.992;13.788;2023-04-07T09:58:38;8.40;47.90
24664;DHT22;12791;50.992;13.788;2023-04-07T10:01:06;8.50;47.60
24664;DHT22;12791;50.992;13.788;2023-04-07T10:03:33;8.60;47.90
24664;DHT22;12791;50.992;13.788;2023-04-07T10:06:00;8.60;47.20
24664;DHT22;12791;50.992;13.788;2023-04-07T10:08:27;8.50;46.30
24664;DHT22;12791;50.992;13.788;2023-04-07T10:10:54;8.50;47.10
24664;DHT22;12791;50.992;13.788;2023-04-07T10:13:21;8.50;47.10
24664;DHT22;12791;50.992;13.788;2023-04-07T10:15:51;8.50;47.10
24664;DHT22;12791;50.992;13.788;2023-04-07T10:18:19;8.60;47.20
24664;DHT22;12791;50.992;13.788;2023-04-07T10:20:48;8.60;47.20
24664;DHT22;12791;50.992;13.788;2023-04-07T10:23:20;8.60;46.90
24664;DHT22;12791;50.992;13.788;2023-04-07T10:25:49;8.70;46.60
24664;DHT22;12791;50.992;13.788;2023-04-07T10:28:20;8.60;46.60
24664;DHT22;12791;50.992;13.788;2023-04-07T10:30:50;8.70;46.10
24664;DHT22;12791;50.992;13.788;2023-04-07T10:33:17;8.70;46.10
24664;DHT22;12791;50.992;13.788;2023-04-07T10:36:04;8.90;46.40
24664;DHT22;12791;50.992;13.788;2023-04-07T10:38:31;8.90;45.70
24664;DHT22;12791;50.992;13.788;2023-04-07T10:40:58;8.90;45.00
24664;DHT22;12791;50.992;13.788;2023-04-07T10:43:36;9.00;45.10
24664;DHT22;12791;50.992;13.788;2023-04-07T10:46:05;9.20;44.70
24664;DHT22;12791;50.992;13.788;2023-04-07T10:48:32;9.20;44.90
24664;DHT22;12791;50.992;13.788;2023-04-07T10:51:15;9.20;43.90
24664;DHT22;12791;50.992;13.788;2023-04-07T11:00:15;9.40;41.10
24664;DHT22;12791;50.992;13.788;2023-04-07T11:02:44;9.40;41.20
24664;DHT22;12791;50.992;13.788;2023-04-07T11:05:21;9.40;41.20
24664;DHT22;12791;50.992;13.788;2023-04-07T11:07:50;9.60;40.50
24664;DHT22;12791;50.992;13.788;2023-04-07T11:10:19;9.50;39.00
24664;DHT22;12791;50.992;13.788;2023-04-07T11:13:04;9.50;39.10
24664;DHT22;12791;50.992;13.788;2023-04-07T11:15:34;9.60;39.40
24664;DHT22;12791;50.992;13.788;2023-04-07T11:18:23;9.70;38.10
24664;DHT22;12791;50.992;13.788;2023-04-07T11:20:51;9.60;37.80
24664;DHT22;12791;50.992;13.788;2023-04-07T11:23:19;9.60;37.80
24664;DHT22;12791;50.992;13.788;2023-04-07T11:25:48;9.70;38.70
24664;DHT22;12791;50.992;13.788;2023-04-07T11:28:16;9.70;39.10
24664;DHT22;12791;50.992;13.788;2023-04-07T11:30:48;9.70;38.90
24664;DHT22;12791;50.992;13.788;2023-04-07T11:33:16;9.70;37.40
24664;DHT22;12791;50.992;13.788;2023-04-07T11:35:49;9.70;36.50
24664;DHT22;12791;50.992;13.788;2023-04-07T11:38:16;9.70;37.00
24664;DHT22;12791;50.992;13.788;2023-04-07T11:40:43;9.70;37.10
24664;DHT22;12791;50.992;13.788;2023-04-07T11:43:18;9.70;37.40
24664;DHT22;12791;50.992;13.788;2023-04-07T11:45:45;9.70;38.00
24664;DHT22;12791;50.992;13.788;2023-04-07T11:48:29;9.70;37.00
24664;DHT22;12791;50.992;13.788;2023-04-07T11:50:59;9.80;37.10
24664;DHT22;12791;50.992;13.788;2023-04-07T11:53:27;9.70;37.10
24664;DHT22;12791;50.992;13.788;2023-04-07T11:56:04;9.80;37.40
24664;DHT22;12791;50.992;13.788;2023-04-07T11:58:31;9.80;37.20
24664;DHT22;12791;50.992;13.788;2023-04-07T12:00:59;9.90;37.70
24664;DHT22;12791;50.992;13.788;2023-04-07T12:03:30;9.90;37.20
24664;DHT22;12791;50.992;13.788;2023-04-07T12:05:58;10.00;36.40
24664;DHT22;12791;50.992;13.788;2023-04-07T12:08:36;9.90;37.20
24664;DHT22;12791;50.992;13.788;2023-04-07T12:11:04;9.90;37.20
24664;DHT22;12791;50.992;13.788;2023-04-07T12:13:32;10.20;37.00
24664;DHT22;12791;50.992;13.788;2023-04-07T12:15:59;10.10;36.90
24664;DHT22;12791;50.992;13.788;2023-04-07T12:18:26;10.10;36.50
24664;DHT22;12791;50.992;13.788;2023-04-07T12:20:53;10.10;36.50
24664;DHT22;12791;50.992;13.788;2023-04-07T12:23:21;10.20;36.50
24664;DHT22;12791;50.992;13.788;2023-04-07T12:25:48;10.20;36.50
24664;DHT22;12791;50.992;13.788;2023-04-07T12:28:14;10.30;37.60
24664;DHT22;12791;50.992;13.788;2023-04-07T12:30:41;10.40;37.30
24664;DHT22;12791;50.992;13.788;2023-04-07T12:33:08;10.40;37.00
24664;DHT22;12791;50.992;13.788;2023-04-07T12:35:34;10.50;37.40
24664;DHT22;12791;50.992;13.788;2023-04-07T12:38:01;10.50;36.80
24664;DHT22;12791;50.992;13.788;2023-04-07T12:40:31;10.50;36.80
24664;DHT22;12791;50.992;13.788;2023-04-07T12:42:58;10.60;36.70
24664;DHT22;12791;50.992;13.788;2023-04-07T12:45:25;10.50;36.80
24664;DHT22;12791;50.992;13.788;2023-04-07T12:47:53;10.50;37.00
24664;DHT22;12791;50.992;13.788;2023-04-07T12:50:20;10.50;37.20
24664;DHT22;12791;50.992;13.788;2023-04-07T12:52:47;10.50;36.80
24664;DHT22;12791;50.992;13.788;2023-04-07T12:55:13;10.60;36.90
24664;DHT22;12791;50.992;13.788;2023-04-07T12:57:41;10.60;37.80
24664;DHT22;12791;50.992;13.788;2023-04-07T13:00:09;10.50;37.50
24664;DHT22;12791;50.992;13.788;2023-04-07T13:02:36;10.50;37.70
24664;DHT22;12791;50.992;13.788;2023-04-07T13:05:02;10.50;37.40
24664;DHT22;12791;50.992;13.788;2023-04-07T13:07:30;10.40;37.90
24664;DHT22;12791;50.992;13.788;2023-04-07T13:09:56;10.40;37.80
24664;DHT22;12791;50.992;13.788;2023-04-07T13:12:23;10.50;38.30
24664;DHT22;12791;50.992;13.788;2023-04-07T13:14:51;10.60;38.10
24664;DHT22;12791;50.992;13.788;2023-04-07T13:17:18;10.60;38.30
24664;DHT22;12791;50.992;13.788;2023-04-07T13:19:45;10.60;38.50
24664;DHT22;12791;50.992;13.788;2023-04-07T13:22:12;10.60;39.00
24664;DHT22;12791;50.992;13.788;2023-04-07T13:24:39;10.60;39.30
24664;DHT22;12791;50.992;13.788;2023-04-07T13:27:05;10.60;39.20
24664;DHT22;12791;50.992;13.788;2023-04-07T13:29:33;10.60;39.50
24664;DHT22;12791;50.992;13.788;2023-04-07T13:32:08;10.70;39.40
24664;DHT22;12791;50.992;13.788;2023-04-07T13:34:35;10.80;39.70
24664;DHT22;12791;50.992;13.788;2023-04-07T13:37:02;10.70;39.40
24664;DHT22;12791;50.992;13.788;2023-04-07T13:39:29;10.80;39.10
24664;DHT22;12791;50.992;13.788;2023-04-07T13:41:56;10.80;38.80
24664;DHT22;12791;50.992;13.788;2023-04-07T13:44:23;10.90;38.90
24664;DHT22;12791;50.992;13.788;2023-04-07T13:46:50;10.90;38.30
24664;DHT22;12791;50.992;13.788;2023-04-07T13:49:19;10.80;38.20
24664;DHT22;12791;50.992;13.788;2023-04-07T13:51:46;10.70;38.90
24664;DHT22;12791;50.992;13.788;2023-04-07T13:54:12;10.80;39.40
24664;DHT22;12791;50.992;13.788;2023-04-07T13:56:39;10.80;38.40
24664;DHT22;12791;50.992;13.788;2023-04-07T13:59:06;10.70;38.80
24664;DHT22;12791;50.992;13.788;2023-04-07T14:01:33;10.70;38.10
24664;DHT22;12791;50.992;13.788;2023-04-07T14:04:00;10.60;38.40
24664;DHT22;12791;50.992;13.788;2023-04-07T14:06:28;10.70;38.70
24664;DHT22;12791;50.992;13.788;2023-04-07T14:08:56;10.70;39.40
24664;DHT22;12791;50.992;13.788;2023-04-07T14:11:23;10.70;39.90
24664;DHT22;12791;50.992;13.788;2023-04-07T14:13:51;10.70;40.10
24664;DHT22;12791;50.992;13.788;2023-04-07T14:16:19;10.70;40.70
24664;DHT22;12791;50.992;13.788;2023-04-07T14:18:45;10.80;39.60
24664;DHT22;12791;50.992;13.788;2023-04-07T14:21:14;10.80;39.20
24664;DHT22;12791;50.992;13.788;2023-04-07T14:23:42;10.80;39.70
24664;DHT22;12791;50.992;13.788;2023-04-07T14:26:09;10.80;40.00
24664;DHT22;12791;50.992;13.788;2023-04-07T14:28:36;10.80;40.70
24664;DHT22;12791;50.992;13.788;2023-04-07T14:31:02;10.90;40.60
24664;DHT22;12791;50.992;13.788;2023-04-07T14:33:29;10.80;40.50
24664;DHT22;12791;50.992;13.788;2023-04-07T14:35:56;10.80;40.00
24664;DHT22;12791;50.992;13.788;2023-04-07T14:38:22;10.80;40.60
24664;DHT22;12791;50.992;13.788;2023-04-07T14:40:51;10.80;40.70
24664;DHT22;12791;50.992;13.788;2023-04-07T14:43:18;10.80;39.80
24664;DHT22;12791;50.992;13.788;2023-04-07T14:45:45;10.80;40.70
24664;DHT22;12791;50.992;13.788;2023-04-07T14:48:11;10.80;39.50
24664;DHT22;12791;50.992;13.788;2023-04-07T14:50:38;10.70;39.50
24664;DHT22;12791;50.992;13.788;2023-04-07T14:53:05;10.70;39.70
24664;DHT22;12791;50.992;13.788;2023-04-07T14:55:32;10.60;39.80
24664;DHT22;12791;50.992;13.788;2023-04-07T14:58:00;10.60;39.70
24664;DHT22;12791;50.992;13.788;2023-04-07T15:00:26;10.60;39.70
24664;DHT22;12791;50.992;13.788;2023-04-07T15:02:53;10.50;41.00
24664;DHT22;12791;50.992;13.788;2023-04-07T15:05:20;10.40;40.20
24664;DHT22;12791;50.992;13.788;2023-04-07T15:07:47;10.40;40.30
24664;DHT22;12791;50.992;13.788;2023-04-07T15:10:15;10.40;40.60
24664;DHT22;12791;50.992;13.788;2023-04-07T15:12:42;10.40;41.10
24664;DHT22;12791;50.992;13.788;2023-04-07T15:15:12;10.40;40.20
24664;DHT22;12791;50.992;13.788;2023-04-07T15:17:38;10.30;40.80
24664;DHT22;12791;50.992;13.788;2023-04-07T15:20:06;10.30;41.10
24664;DHT22;12791;50.992;13.788;2023-04-07T15:22:33;10.40;40.70
24664;DHT22;12791;50.992;13.788;2023-04-07T15:24:59;10.20;40.80
24664;DHT22;12791;50.992;13.788;2023-04-07T15:27:27;10.30;41.70
24664;DHT22;12791;50.992;13.788;2023-04-07T15:29:54;10.10;41.30
24664;DHT22;12791;50.992;13.788;2023-04-07T15:32:22;10.10;41.40
24664;DHT22;12791;50.992;13.788;2023-04-07T15:34:48;10.00;41.30
24664;DHT22;12791;50.992;13.788;2023-04-07T15:37:15;10.00;41.50
24664;DHT22;12791;50.992;13.788;2023-04-07T15:39:43;10.00;41.50